YPKG

Kalgoorlie Boulder Airport

Kalgoorlie, Australia
METAR YPKG 221600Z AUTO 02005KT 9999 // NCD 22/18 Q1009
Observed Flight Rules
Feb-22 @ 16:00 UTC (41 minutes ago) Visual Flight Rules
Wind Visibility Clouds
20° at 5 knots 10,000+ meters
  • Clear skies
Temperatures Readings
Current 22°C / 72°F
Dewpoint 18°C / 64°F
Humidity 78%
Altimeter 29.79" Hg
Pressure 1009 hPa
Elevation 360
METAR YPKG 221600Z AUTO 02005KT 9999 // NCD 22/18 Q1009
Observed Flight Rules
Feb-22 @ 16:00 UTC
(41 minutes ago)
VFR
Wind Visibility
20° at 5 knots 10,000+ meters
Clouds
  • Clear skies
Temperature Dewpoint
22°C / 72°F 18°C / 64°F
Humidity Altimeter Pressure
78% 29.79" Hg 1009 hPa